Aeroporto :
LOGIN :

Iscrizione | Disclaimer

   EN    FR    IT 

 










Sommario :    VFR   VFR Marginale   IFR   IFR Intensivo   IFR Molto Intensivo
Visibilità : 
Base nubi : 
>= 8 km
>= 3000ft
5 / 8 km
1000 / 3000 ft
1500m / 5 km
500 / 1000 ft
800 / 1500m
200 / 500 ft
< 800m
< 200 ft
Simboli :   Temporali  Nebbia  Neve Forte  Precipitazioni Forti  Vento > 20 kt
SIGMETs :   Varie  Temporali  Ghiacco  Turbolenza  Onda orograficha  Ceneri Vulcaniche






- Altitudine del aeroporto : 190 ft
- Codice IATA : CAX


EGNC - Carlisle

ULTIMO METAR :
  • 150750Z 04006KT 350V080 9999 FEW019 SCT040 06/03 Q1012

METARs OBSOLETI :
  • 150720Z 04006KT 9999 SCT040 06/03 Q1012
  • 150650Z 04008KT 010V080 9999 SCT040 06/03 Q1012
  • 150620Z 03008KT 290V070 9999 SCT040 06/03 Q1011

TAF TAF EGNC
Valido dal 15 a 07 ore il 15 a 15 ore UTC


150704Z 1507/1515 03008KT 9999 SCT030
PROB40
TEMPO 1507/1512 8000 -RA BKN014
ATIS : +44 1228 574 123



MetMap, La meteo Aeronautica in un colpo d'occhio ! - Copyright ORBIFLY Dicembre 2007 - Disclaimer

ORBIFLY MET'MAP TEAM :

Programmazione e sviluppo : Alexandra Zaïnal
Concezione e sviluppo : Baudouin d'Aumeries
Co-Programmazione e sviluppo : Marc-Olivier Méhu
Supporto tecnico e logistico : Manuel Goepfert
Aiuto per la traduzione : Arnaldo La Scala

Contatto : metmap@orbifly.com




FONTI E CREDITI :

   NOAA